メインページ
METAR-TAF:

METAR-TAF

空港 :

コーク空港

コーク, アイルランド

緯度: 51-51N, 経度: 008-29W, 海抜: 153m

現時点の気象観測

当レポートは26分前の17:00(UTC)に作成
南/南西の風 14kt
気温 13°C
湿度 82%
気圧 1031 hPa
視程10km以上
高度1700ftの雲はほとんどない
高度5000ftの雲は散在している

METAR: EICK 251700Z 21014KT 9999 FEW017 SCT050 13/10 Q1031 NOSIG

時間: 18:26 (17:26 UTC)

予報

当レポートは6時間26分前の11:00(UTC)に作成
予報は25日の 12時(UTC)から 26日の 12時(UTC)まで有効
南/南西の風 14kt
視程10km以上
高度2500ftの雲は散在している
25日の 12時(UTC)から 25日の 16時(UTC)まで一時的に
南西の風 17kt、最大27ktの突風を伴う
確率 30% :
25日の 22時(UTC)から 26日の 09時(UTC)まで一時的に
視程: 5000m
高度1200ftの千切れ雲あり
小雨
26日の 01時(UTC)から 26日の 03時(UTC)まで徐々に
南西の風 8kt

TAF: EICK 251100Z 2512/2612 20014KT 9999 SCT025 TEMPO 2512/2516 22017G27KT PROB30 TEMPO 2522/2609 5000 -RA BKN012 BECMG 2601/2603 23008KT

4,000以上の空港の気象観測と天気予報(METAR報とTAF報)

利用可能な観測所は地図上に黄色い丸と赤い丸で示す。

丸の上にカーソルを重ねると観測所名を参照できる。

次にクリックすると気象観測と天気予報を参照できる。

マップの切り替え:黒色「×」印の緑ボタンをクリックして拡大、「-」印の緑ボタンをクリックして縮小、緑色の三角印をクリックして隣りの地図に切り替え


METAR-TAF: